sensor_id;sensor_type;location;lat;lon;timestamp;P1;durP1;ratioP1;P2;durP2;ratioP2
27275;SDS011;14772;47.398;8.080;2022-09-12T00:01:02;8.33;;;2.47;;
27275;SDS011;14772;47.398;8.080;2022-09-12T00:06:00;11.73;;;2.80;;
27275;SDS011;14772;47.398;8.080;2022-09-12T00:11:04;7.70;;;2.50;;
27275;SDS011;14772;47.398;8.080;2022-09-12T00:16:03;6.80;;;2.50;;
27275;SDS011;14772;47.398;8.080;2022-09-12T00:21:02;7.67;;;2.37;;
27275;SDS011;14772;47.398;8.080;2022-09-12T00:26:02;8.37;;;2.80;;
27275;SDS011;14772;47.398;8.080;2022-09-12T00:31:02;8.23;;;2.67;;
27275;SDS011;14772;47.398;8.080;2022-09-12T00:36:02;7.43;;;2.60;;
27275;SDS011;14772;47.398;8.080;2022-09-12T00:41:00;10.23;;;2.83;;
27275;SDS011;14772;47.398;8.080;2022-09-12T00:45:57;9.37;;;2.37;;
27275;SDS011;14772;47.398;8.080;2022-09-12T00:50:57;10.90;;;2.97;;
27275;SDS011;14772;47.398;8.080;2022-09-12T00:55:54;7.17;;;2.50;;
27275;SDS011;14772;47.398;8.080;2022-09-12T01:00:53;8.83;;;2.70;;
27275;SDS011;14772;47.398;8.080;2022-09-12T01:05:52;9.00;;;2.70;;
27275;SDS011;14772;47.398;8.080;2022-09-12T01:10:52;10.03;;;2.80;;
27275;SDS011;14772;47.398;8.080;2022-09-12T01:15:50;7.87;;;2.70;;
27275;SDS011;14772;47.398;8.080;2022-09-12T01:20:53;7.80;;;2.50;;
27275;SDS011;14772;47.398;8.080;2022-09-12T01:26:01;8.57;;;2.57;;
27275;SDS011;14772;47.398;8.080;2022-09-12T01:31:05;8.60;;;2.83;;
27275;SDS011;14772;47.398;8.080;2022-09-12T01:36:13;13.03;;;2.80;;
27275;SDS011;14772;47.398;8.080;2022-09-12T01:41:35;10.10;;;2.90;;
27275;SDS011;14772;47.398;8.080;2022-09-12T01:46:39;7.93;;;2.80;;
27275;SDS011;14772;47.398;8.080;2022-09-12T01:51:40;8.03;;;3.00;;
27275;SDS011;14772;47.398;8.080;2022-09-12T01:56:39;9.20;;;2.77;;
27275;SDS011;14772;47.398;8.080;2022-09-12T02:01:39;8.77;;;2.93;;
27275;SDS011;14772;47.398;8.080;2022-09-12T02:06:40;10.57;;;2.97;;
27275;SDS011;14772;47.398;8.080;2022-09-12T02:11:41;10.43;;;3.00;;
27275;SDS011;14772;47.398;8.080;2022-09-12T02:16:40;7.73;;;2.70;;
27275;SDS011;14772;47.398;8.080;2022-09-12T02:21:40;8.33;;;2.90;;
27275;SDS011;14772;47.398;8.080;2022-09-12T02:26:44;11.07;;;3.40;;
27275;SDS011;14772;47.398;8.080;2022-09-12T02:31:43;12.23;;;3.40;;
27275;SDS011;14772;47.398;8.080;2022-09-12T02:36:45;8.83;;;2.80;;
27275;SDS011;14772;47.398;8.080;2022-09-12T02:41:44;9.27;;;2.90;;
27275;SDS011;14772;47.398;8.080;2022-09-12T02:46:42;8.37;;;2.80;;
27275;SDS011;14772;47.398;8.080;2022-09-12T02:51:41;10.83;;;3.30;;
27275;SDS011;14772;47.398;8.080;2022-09-12T02:56:40;9.57;;;3.00;;
27275;SDS011;14772;47.398;8.080;2022-09-12T03:01:45;8.50;;;2.70;;
27275;SDS011;14772;47.398;8.080;2022-09-12T03:06:52;11.80;;;2.70;;
27275;SDS011;14772;47.398;8.080;2022-09-12T03:12:00;9.20;;;2.90;;
27275;SDS011;14772;47.398;8.080;2022-09-12T03:17:08;9.87;;;2.80;;
27275;SDS011;14772;47.398;8.080;2022-09-12T03:22:09;9.70;;;2.87;;
27275;SDS011;14772;47.398;8.080;2022-09-12T03:27:09;9.23;;;2.93;;
27275;SDS011;14772;47.398;8.080;2022-09-12T03:32:10;7.73;;;2.73;;
27275;SDS011;14772;47.398;8.080;2022-09-12T03:37:08;10.73;;;2.73;;
27275;SDS011;14772;47.398;8.080;2022-09-12T03:42:05;10.70;;;3.00;;
27275;SDS011;14772;47.398;8.080;2022-09-12T03:47:07;11.10;;;3.00;;
27275;SDS011;14772;47.398;8.080;2022-09-12T03:52:16;8.93;;;3.10;;
27275;SDS011;14772;47.398;8.080;2022-09-12T03:57:13;11.40;;;3.43;;
27275;SDS011;14772;47.398;8.080;2022-09-12T04:02:10;11.27;;;3.23;;
27275;SDS011;14772;47.398;8.080;2022-09-12T04:07:08;10.43;;;3.30;;
27275;SDS011;14772;47.398;8.080;2022-09-12T04:12:05;9.93;;;3.10;;
27275;SDS011;14772;47.398;8.080;2022-09-12T04:17:03;9.23;;;3.00;;
27275;SDS011;14772;47.398;8.080;2022-09-12T04:22:00;10.63;;;2.43;;
27275;SDS011;14772;47.398;8.080;2022-09-12T04:26:57;9.07;;;3.20;;
27275;SDS011;14772;47.398;8.080;2022-09-12T04:31:54;11.50;;;2.80;;
27275;SDS011;14772;47.398;8.080;2022-09-12T04:36:52;14.33;;;3.90;;
27275;SDS011;14772;47.398;8.080;2022-09-12T04:41:49;12.20;;;3.50;;
27275;SDS011;14772;47.398;8.080;2022-09-12T04:46:46;11.20;;;3.57;;
27275;SDS011;14772;47.398;8.080;2022-09-12T04:51:43;10.90;;;3.33;;
27275;SDS011;14772;47.398;8.080;2022-09-12T04:56:42;11.80;;;3.53;;
27275;SDS011;14772;47.398;8.080;2022-09-12T05:01:41;11.93;;;4.13;;
27275;SDS011;14772;47.398;8.080;2022-09-12T05:06:39;12.70;;;4.40;;
27275;SDS011;14772;47.398;8.080;2022-09-12T05:11:37;11.03;;;3.70;;
27275;SDS011;14772;47.398;8.080;2022-09-12T05:16:36;10.13;;;3.20;;
27275;SDS011;14772;47.398;8.080;2022-09-12T05:21:33;11.33;;;3.10;;
27275;SDS011;14772;47.398;8.080;2022-09-12T05:26:30;11.37;;;3.57;;
27275;SDS011;14772;47.398;8.080;2022-09-12T05:31:27;9.67;;;3.23;;
27275;SDS011;14772;47.398;8.080;2022-09-12T05:36:25;9.87;;;3.20;;
27275;SDS011;14772;47.398;8.080;2022-09-12T05:41:24;11.33;;;3.50;;
27275;SDS011;14772;47.398;8.080;2022-09-12T05:46:23;10.97;;;3.30;;
27275;SDS011;14772;47.398;8.080;2022-09-12T05:51:22;11.38;;;3.77;;
27275;SDS011;14772;47.398;8.080;2022-09-12T05:56:20;11.10;;;4.07;;
27275;SDS011;14772;47.398;8.080;2022-09-12T06:01:19;11.20;;;3.20;;
27275;SDS011;14772;47.398;8.080;2022-09-12T06:06:16;10.17;;;3.70;;
27275;SDS011;14772;47.398;8.080;2022-09-12T06:11:31;12.33;;;3.70;;
27275;SDS011;14772;47.398;8.080;2022-09-12T06:16:30;11.97;;;3.40;;
27275;SDS011;14772;47.398;8.080;2022-09-12T06:21:28;14.43;;;4.17;;
27275;SDS011;14772;47.398;8.080;2022-09-12T06:26:26;12.80;;;4.17;;
27275;SDS011;14772;47.398;8.080;2022-09-12T06:31:25;13.33;;;3.97;;
27275;SDS011;14772;47.398;8.080;2022-09-12T06:36:23;10.90;;;3.77;;
27275;SDS011;14772;47.398;8.080;2022-09-12T06:41:22;11.27;;;4.00;;
27275;SDS011;14772;47.398;8.080;2022-09-12T06:46:20;12.57;;;4.40;;
27275;SDS011;14772;47.398;8.080;2022-09-12T06:51:18;12.40;;;4.00;;
27275;SDS011;14772;47.398;8.080;2022-09-12T06:56:16;12.43;;;4.27;;
27275;SDS011;14772;47.398;8.080;2022-09-12T07:01:16;14.33;;;5.20;;
27275;SDS011;14772;47.398;8.080;2022-09-12T07:06:15;12.73;;;4.50;;
27275;SDS011;14772;47.398;8.080;2022-09-12T07:11:13;14.70;;;4.73;;
27275;SDS011;14772;47.398;8.080;2022-09-12T07:16:12;12.00;;;4.87;;
27275;SDS011;14772;47.398;8.080;2022-09-12T07:21:10;12.80;;;4.97;;
27275;SDS011;14772;47.398;8.080;2022-09-12T07:26:09;11.87;;;5.00;;
27275;SDS011;14772;47.398;8.080;2022-09-12T07:31:08;15.30;;;5.33;;
27275;SDS011;14772;47.398;8.080;2022-09-12T07:36:07;14.43;;;5.60;;
27275;SDS011;14772;47.398;8.080;2022-09-12T07:41:11;14.80;;;5.93;;
27275;SDS011;14772;47.398;8.080;2022-09-12T07:46:08;16.53;;;5.83;;
27275;SDS011;14772;47.398;8.080;2022-09-12T07:51:07;13.87;;;5.70;;
27275;SDS011;14772;47.398;8.080;2022-09-12T07:56:06;16.23;;;5.40;;
27275;SDS011;14772;47.398;8.080;2022-09-12T08:01:04;12.10;;;5.10;;
27275;SDS011;14772;47.398;8.080;2022-09-12T08:06:03;14.40;;;4.63;;
27275;SDS011;14772;47.398;8.080;2022-09-12T08:11:02;12.63;;;4.57;;
27275;SDS011;14772;47.398;8.080;2022-09-12T08:16:02;12.10;;;4.10;;
27275;SDS011;14772;47.398;8.080;2022-09-12T08:21:01;11.57;;;4.20;;
27275;SDS011;14772;47.398;8.080;2022-09-12T08:26:01;12.47;;;4.40;;
27275;SDS011;14772;47.398;8.080;2022-09-12T08:31:00;11.77;;;4.17;;
27275;SDS011;14772;47.398;8.080;2022-09-12T08:36:02;11.30;;;4.20;;
27275;SDS011;14772;47.398;8.080;2022-09-12T08:41:02;11.33;;;4.27;;
27275;SDS011;14772;47.398;8.080;2022-09-12T08:46:03;12.70;;;4.40;;
27275;SDS011;14772;47.398;8.080;2022-09-12T08:51:03;12.30;;;4.03;;
27275;SDS011;14772;47.398;8.080;2022-09-12T08:56:01;11.37;;;4.27;;
27275;SDS011;14772;47.398;8.080;2022-09-12T09:01:01;11.07;;;3.93;;
27275;SDS011;14772;47.398;8.080;2022-09-12T09:06:04;11.10;;;3.70;;
27275;SDS011;14772;47.398;8.080;2022-09-12T09:11:06;11.10;;;4.40;;
27275;SDS011;14772;47.398;8.080;2022-09-12T09:16:08;11.93;;;4.40;;
27275;SDS011;14772;47.398;8.080;2022-09-12T09:21:10;11.67;;;4.07;;
27275;SDS011;14772;47.398;8.080;2022-09-12T09:26:10;12.17;;;4.47;;
27275;SDS011;14772;47.398;8.080;2022-09-12T09:31:11;13.10;;;4.03;;
27275;SDS011;14772;47.398;8.080;2022-09-12T09:36:13;9.67;;;3.70;;
27275;SDS011;14772;47.398;8.080;2022-09-12T09:41:19;11.00;;;3.47;;
27275;SDS011;14772;47.398;8.080;2022-09-12T09:46:25;13.90;;;4.33;;
27275;SDS011;14772;47.398;8.080;2022-09-12T09:51:24;10.10;;;3.37;;
27275;SDS011;14772;47.398;8.080;2022-09-12T09:56:27;11.50;;;3.50;;
27275;SDS011;14772;47.398;8.080;2022-09-12T10:01:26;10.30;;;3.20;;
27275;SDS011;14772;47.398;8.080;2022-09-12T10:06:30;9.43;;;3.30;;
27275;SDS011;14772;47.398;8.080;2022-09-12T10:11:28;11.13;;;3.30;;
27275;SDS011;14772;47.398;8.080;2022-09-12T10:16:28;10.97;;;3.23;;
27275;SDS011;14772;47.398;8.080;2022-09-12T10:21:33;10.60;;;3.53;;
27275;SDS011;14772;47.398;8.080;2022-09-12T10:26:37;13.43;;;3.80;;
27275;SDS011;14772;47.398;8.080;2022-09-12T10:31:40;9.83;;;3.50;;
27275;SDS011;14772;47.398;8.080;2022-09-12T10:36:42;14.67;;;3.60;;
27275;SDS011;14772;47.398;8.080;2022-09-12T10:41:39;8.80;;;3.10;;
27275;SDS011;14772;47.398;8.080;2022-09-12T10:46:37;8.80;;;3.00;;
27275;SDS011;14772;47.398;8.080;2022-09-12T10:51:34;9.03;;;3.40;;
27275;SDS011;14772;47.398;8.080;2022-09-12T10:56:31;8.67;;;3.10;;
27275;SDS011;14772;47.398;8.080;2022-09-12T11:01:35;10.80;;;3.20;;
27275;SDS011;14772;47.398;8.080;2022-09-12T11:06:37;9.47;;;3.33;;
27275;SDS011;14772;47.398;8.080;2022-09-12T11:11:43;10.37;;;3.23;;
27275;SDS011;14772;47.398;8.080;2022-09-12T11:16:44;9.73;;;3.33;;
27275;SDS011;14772;47.398;8.080;2022-09-12T11:21:51;9.03;;;3.10;;
27275;SDS011;14772;47.398;8.080;2022-09-12T11:27:01;12.33;;;3.23;;
27275;SDS011;14772;47.398;8.080;2022-09-12T11:32:17;9.80;;;3.23;;
27275;SDS011;14772;47.398;8.080;2022-09-12T11:37:27;8.70;;;3.30;;
27275;SDS011;14772;47.398;8.080;2022-09-12T11:42:30;8.10;;;3.03;;
27275;SDS011;14772;47.398;8.080;2022-09-12T11:47:30;8.53;;;3.10;;
27275;SDS011;14772;47.398;8.080;2022-09-12T11:52:34;9.67;;;3.00;;
27275;SDS011;14772;47.398;8.080;2022-09-12T11:57:34;10.00;;;2.97;;
27275;SDS011;14772;47.398;8.080;2022-09-12T12:02:35;9.53;;;3.03;;
27275;SDS011;14772;47.398;8.080;2022-09-12T12:07:37;10.37;;;2.93;;
27275;SDS011;14772;47.398;8.080;2022-09-12T12:12:36;9.10;;;2.90;;
27275;SDS011;14772;47.398;8.080;2022-09-12T12:17:34;7.67;;;2.80;;
27275;SDS011;14772;47.398;8.080;2022-09-12T12:22:31;9.90;;;2.60;;
27275;SDS011;14772;47.398;8.080;2022-09-12T12:27:45;6.47;;;2.50;;
27275;SDS011;14772;47.398;8.080;2022-09-12T12:32:44;7.93;;;2.63;;
27275;SDS011;14772;47.398;8.080;2022-09-12T12:37:52;9.43;;;2.70;;
27275;SDS011;14772;47.398;8.080;2022-09-12T12:43:01;6.73;;;2.70;;
27275;SDS011;14772;47.398;8.080;2022-09-12T12:48:00;7.13;;;2.50;;
27275;SDS011;14772;47.398;8.080;2022-09-12T12:53:01;8.03;;;2.40;;
27275;SDS011;14772;47.398;8.080;2022-09-12T12:58:01;6.67;;;2.40;;
27275;SDS011;14772;47.398;8.080;2022-09-12T13:03:01;7.30;;;2.40;;
27275;SDS011;14772;47.398;8.080;2022-09-12T13:08:05;6.03;;;2.20;;
27275;SDS011;14772;47.398;8.080;2022-09-12T13:13:05;4.07;;;1.90;;
27275;SDS011;14772;47.398;8.080;2022-09-12T13:18:04;6.10;;;2.13;;
27275;SDS011;14772;47.398;8.080;2022-09-12T13:23:04;7.13;;;2.10;;
27275;SDS011;14772;47.398;8.080;2022-09-12T13:28:02;4.97;;;2.00;;
27275;SDS011;14772;47.398;8.080;2022-09-12T13:33:14;7.47;;;2.10;;
27275;SDS011;14772;47.398;8.080;2022-09-12T13:38:15;5.00;;;2.10;;
27275;SDS011;14772;47.398;8.080;2022-09-12T13:43:16;5.80;;;2.00;;
27275;SDS011;14772;47.398;8.080;2022-09-12T13:48:18;5.33;;;2.00;;
27275;SDS011;14772;47.398;8.080;2022-09-12T13:53:19;7.63;;;2.07;;
27275;SDS011;14772;47.398;8.080;2022-09-12T13:58:20;5.57;;;2.20;;
27275;SDS011;14772;47.398;8.080;2022-09-12T14:03:24;5.97;;;2.00;;
27275;SDS011;14772;47.398;8.080;2022-09-12T14:08:23;8.13;;;2.10;;
27275;SDS011;14772;47.398;8.080;2022-09-12T14:13:21;7.00;;;2.00;;
27275;SDS011;14772;47.398;8.080;2022-09-12T14:18:22;5.73;;;2.00;;
27275;SDS011;14772;47.398;8.080;2022-09-12T14:23:24;4.60;;;2.00;;
27275;SDS011;14772;47.398;8.080;2022-09-12T14:28:24;4.97;;;2.00;;
27275;SDS011;14772;47.398;8.080;2022-09-12T14:33:22;6.30;;;2.00;;
27275;SDS011;14772;47.398;8.080;2022-09-12T14:38:23;5.93;;;2.00;;
27275;SDS011;14772;47.398;8.080;2022-09-12T14:43:24;6.80;;;1.90;;
27275;SDS011;14772;47.398;8.080;2022-09-12T14:48:24;3.97;;;1.87;;
27275;SDS011;14772;47.398;8.080;2022-09-12T14:53:24;5.90;;;2.10;;
27275;SDS011;14772;47.398;8.080;2022-09-12T14:58:27;6.03;;;2.10;;
27275;SDS011;14772;47.398;8.080;2022-09-12T15:03:25;4.90;;;2.10;;
27275;SDS011;14772;47.398;8.080;2022-09-12T15:08:25;6.20;;;2.10;;
27275;SDS011;14772;47.398;8.080;2022-09-12T15:13:23;3.73;;;1.97;;
27275;SDS011;14772;47.398;8.080;2022-09-12T15:18:22;6.03;;;2.10;;
27275;SDS011;14772;47.398;8.080;2022-09-12T15:23:22;7.17;;;2.00;;
27275;SDS011;14772;47.398;8.080;2022-09-12T15:28:26;5.40;;;1.97;;
27275;SDS011;14772;47.398;8.080;2022-09-12T15:33:25;4.27;;;1.83;;
27275;SDS011;14772;47.398;8.080;2022-09-12T15:38:22;6.50;;;2.10;;
27275;SDS011;14772;47.398;8.080;2022-09-12T15:43:19;6.13;;;2.00;;
27275;SDS011;14772;47.398;8.080;2022-09-12T15:48:17;7.83;;;2.30;;
27275;SDS011;14772;47.398;8.080;2022-09-12T15:53:15;5.13;;;1.80;;
27275;SDS011;14772;47.398;8.080;2022-09-12T15:58:12;3.57;;;1.80;;
27275;SDS011;14772;47.398;8.080;2022-09-12T16:03:14;13.00;;;2.17;;
27275;SDS011;14772;47.398;8.080;2022-09-12T16:08:14;4.60;;;1.90;;
27275;SDS011;14772;47.398;8.080;2022-09-12T16:13:11;5.23;;;2.20;;
27275;SDS011;14772;47.398;8.080;2022-09-12T16:18:09;5.83;;;2.10;;
27275;SDS011;14772;47.398;8.080;2022-09-12T16:23:06;6.90;;;2.00;;
27275;SDS011;14772;47.398;8.080;2022-09-12T16:28:04;5.83;;;2.10;;
27275;SDS011;14772;47.398;8.080;2022-09-12T16:33:02;5.80;;;2.13;;
27275;SDS011;14772;47.398;8.080;2022-09-12T16:38:00;6.40;;;2.10;;
27275;SDS011;14772;47.398;8.080;2022-09-12T16:42:57;4.63;;;1.90;;
27275;SDS011;14772;47.398;8.080;2022-09-12T16:47:54;6.63;;;2.07;;
27275;SDS011;14772;47.398;8.080;2022-09-12T16:52:51;7.10;;;2.20;;
27275;SDS011;14772;47.398;8.080;2022-09-12T16:57:48;6.17;;;1.97;;
27275;SDS011;14772;47.398;8.080;2022-09-12T17:02:45;9.47;;;2.00;;
27275;SDS011;14772;47.398;8.080;2022-09-12T17:07:42;7.30;;;2.40;;
27275;SDS011;14772;47.398;8.080;2022-09-12T17:12:40;10.57;;;2.83;;
27275;SDS011;14772;47.398;8.080;2022-09-12T17:17:37;7.47;;;2.50;;
27275;SDS011;14772;47.398;8.080;2022-09-12T17:22:34;11.70;;;2.60;;
27275;SDS011;14772;47.398;8.080;2022-09-12T17:27:31;10.60;;;2.50;;
27275;SDS011;14772;47.398;8.080;2022-09-12T17:32:28;7.00;;;2.20;;
27275;SDS011;14772;47.398;8.080;2022-09-12T17:37:25;7.43;;;2.33;;
27275;SDS011;14772;47.398;8.080;2022-09-12T17:42:23;8.53;;;2.40;;
27275;SDS011;14772;47.398;8.080;2022-09-12T17:47:20;8.27;;;2.50;;
27275;SDS011;14772;47.398;8.080;2022-09-12T17:52:17;10.67;;;2.90;;
27275;SDS011;14772;47.398;8.080;2022-09-12T17:57:14;11.23;;;3.60;;
27275;SDS011;14772;47.398;8.080;2022-09-12T18:02:11;10.90;;;3.23;;
27275;SDS011;14772;47.398;8.080;2022-09-12T18:07:09;12.35;;;3.60;;
27275;SDS011;14772;47.398;8.080;2022-09-12T18:12:07;12.77;;;3.13;;
27275;SDS011;14772;47.398;8.080;2022-09-12T18:17:04;9.93;;;3.10;;
27275;SDS011;14772;47.398;8.080;2022-09-12T18:22:02;10.67;;;3.00;;
27275;SDS011;14772;47.398;8.080;2022-09-12T18:27:00;10.30;;;3.03;;
27275;SDS011;14772;47.398;8.080;2022-09-12T18:31:57;11.83;;;3.37;;
27275;SDS011;14772;47.398;8.080;2022-09-12T18:36:54;11.03;;;3.10;;
27275;SDS011;14772;47.398;8.080;2022-09-12T18:41:52;11.50;;;3.33;;
27275;SDS011;14772;47.398;8.080;2022-09-12T18:46:49;11.33;;;3.20;;
27275;SDS011;14772;47.398;8.080;2022-09-12T18:51:46;13.07;;;3.23;;
27275;SDS011;14772;47.398;8.080;2022-09-12T18:56:43;11.17;;;3.60;;
27275;SDS011;14772;47.398;8.080;2022-09-12T19:01:40;9.67;;;3.17;;
27275;SDS011;14772;47.398;8.080;2022-09-12T19:06:39;9.73;;;3.00;;
27275;SDS011;14772;47.398;8.080;2022-09-12T19:11:38;13.23;;;3.20;;
27275;SDS011;14772;47.398;8.080;2022-09-12T19:16:36;12.27;;;3.30;;
27275;SDS011;14772;47.398;8.080;2022-09-12T19:21:33;12.93;;;3.60;;
27275;SDS011;14772;47.398;8.080;2022-09-12T19:26:30;8.07;;;2.80;;
27275;SDS011;14772;47.398;8.080;2022-09-12T19:31:28;12.07;;;3.10;;
27275;SDS011;14772;47.398;8.080;2022-09-12T19:36:27;9.20;;;2.83;;
27275;SDS011;14772;47.398;8.080;2022-09-12T19:41:24;11.13;;;3.07;;
27275;SDS011;14772;47.398;8.080;2022-09-12T19:46:22;11.63;;;2.77;;
27275;SDS011;14772;47.398;8.080;2022-09-12T19:51:21;12.33;;;3.00;;
27275;SDS011;14772;47.398;8.080;2022-09-12T19:56:18;10.40;;;3.10;;
27275;SDS011;14772;47.398;8.080;2022-09-12T20:01:16;9.83;;;2.93;;
27275;SDS011;14772;47.398;8.080;2022-09-12T20:06:15;11.37;;;2.93;;
27275;SDS011;14772;47.398;8.080;2022-09-12T20:11:14;10.23;;;3.30;;
27275;SDS011;14772;47.398;8.080;2022-09-12T20:16:13;10.37;;;3.30;;
27275;SDS011;14772;47.398;8.080;2022-09-12T20:21:12;10.60;;;3.03;;
27275;SDS011;14772;47.398;8.080;2022-09-12T20:26:20;11.30;;;3.20;;
27275;SDS011;14772;47.398;8.080;2022-09-12T20:31:17;9.13;;;2.97;;
27275;SDS011;14772;47.398;8.080;2022-09-12T20:36:15;9.93;;;3.20;;
27275;SDS011;14772;47.398;8.080;2022-09-12T20:41:14;10.73;;;2.93;;
27275;SDS011;14772;47.398;8.080;2022-09-12T20:46:13;9.53;;;3.10;;
27275;SDS011;14772;47.398;8.080;2022-09-12T20:51:10;11.93;;;3.30;;
27275;SDS011;14772;47.398;8.080;2022-09-12T20:56:07;10.17;;;3.03;;
27275;SDS011;14772;47.398;8.080;2022-09-12T21:01:07;14.23;;;3.57;;
27275;SDS011;14772;47.398;8.080;2022-09-12T21:06:06;11.07;;;3.80;;
27275;SDS011;14772;47.398;8.080;2022-09-12T21:11:04;11.77;;;3.43;;
27275;SDS011;14772;47.398;8.080;2022-09-12T21:16:03;9.30;;;3.10;;
27275;SDS011;14772;47.398;8.080;2022-09-12T21:21:01;10.10;;;3.13;;
27275;SDS011;14772;47.398;8.080;2022-09-12T21:26:08;11.47;;;3.10;;
27275;SDS011;14772;47.398;8.080;2022-09-12T21:31:06;8.93;;;2.93;;
27275;SDS011;14772;47.398;8.080;2022-09-12T21:36:04;9.13;;;3.10;;
27275;SDS011;14772;47.398;8.080;2022-09-12T21:41:03;9.90;;;3.23;;
27275;SDS011;14772;47.398;8.080;2022-09-12T21:46:01;12.27;;;3.40;;
27275;SDS011;14772;47.398;8.080;2022-09-12T21:50:59;10.63;;;3.33;;
27275;SDS011;14772;47.398;8.080;2022-09-12T21:55:59;11.37;;;3.70;;
27275;SDS011;14772;47.398;8.080;2022-09-12T22:00:57;10.73;;;3.30;;
27275;SDS011;14772;47.398;8.080;2022-09-12T22:05:58;10.00;;;3.10;;
27275;SDS011;14772;47.398;8.080;2022-09-12T22:10:56;12.93;;;3.33;;
27275;SDS011;14772;47.398;8.080;2022-09-12T22:15:54;10.67;;;3.40;;
27275;SDS011;14772;47.398;8.080;2022-09-12T22:20:57;11.60;;;3.50;;
27275;SDS011;14772;47.398;8.080;2022-09-12T22:25:55;12.27;;;3.27;;
27275;SDS011;14772;47.398;8.080;2022-09-12T22:30:54;9.40;;;3.20;;
27275;SDS011;14772;47.398;8.080;2022-09-12T22:35:51;12.00;;;3.30;;
27275;SDS011;14772;47.398;8.080;2022-09-12T22:40:48;9.73;;;3.27;;
27275;SDS011;14772;47.398;8.080;2022-09-12T22:45:45;11.60;;;3.27;;
27275;SDS011;14772;47.398;8.080;2022-09-12T22:50:42;11.40;;;3.47;;
27275;SDS011;14772;47.398;8.080;2022-09-12T22:55:41;10.03;;;3.50;;
27275;SDS011;14772;47.398;8.080;2022-09-12T23:00:38;13.30;;;3.70;;
27275;SDS011;14772;47.398;8.080;2022-09-12T23:05:37;12.07;;;4.23;;
27275;SDS011;14772;47.398;8.080;2022-09-12T23:10:34;10.53;;;3.77;;
27275;SDS011;14772;47.398;8.080;2022-09-12T23:15:32;11.90;;;3.30;;
27275;SDS011;14772;47.398;8.080;2022-09-12T23:20:29;10.73;;;3.60;;
27275;SDS011;14772;47.398;8.080;2022-09-12T23:25:26;12.10;;;3.70;;
27275;SDS011;14772;47.398;8.080;2022-09-12T23:30:23;11.77;;;3.50;;
27275;SDS011;14772;47.398;8.080;2022-09-12T23:35:20;10.07;;;3.57;;
27275;SDS011;14772;47.398;8.080;2022-09-12T23:40:18;10.10;;;3.57;;
27275;SDS011;14772;47.398;8.080;2022-09-12T23:45:15;13.43;;;3.90;;
27275;SDS011;14772;47.398;8.080;2022-09-12T23:50:12;13.63;;;4.00;;
27275;SDS011;14772;47.398;8.080;2022-09-12T23:55:10;9.47;;;3.40;;
